Time;durP1;ratioP1;P1;durP2;ratioP2;P2;SDS_P1;SDS_P2;PMS_P1;PMS_P2;Temp;Humidity;BMP_temperature;BMP_pressure;BME280_temperature;BME280_humidity;BME280_pressure;Samples;Min_cycle;Max_cycle;Signal;HPM_P1;HPM_P2
2022/04/02 00:02:22;;;;;;;1.58;1.42;;;;;;;;;;5111876;28;20028;-50
2022/04/02 00:04:48;;;;;;;1.92;1.83;;;;;;;;;;5111101;28;20027;-50
2022/04/02 00:07:15;;;;;;;1.60;1.50;;;;;;;;;;5111865;28;20036;-52
2022/04/02 00:09:41;;;;;;;2.20;1.50;;;;;;;;;;5111891;28;20024;-54
2022/04/02 00:12:08;;;;;;;2.45;1.38;;;;;;;;;;5111034;28;20081;-51
2022/04/02 00:14:34;;;;;;;2.17;1.80;;;;;;;;;;5111849;28;20024;-52
2022/04/02 00:17:00;;;;;;;1.63;1.52;;;;;;;;;;5110888;28;20051;-51
2022/04/02 00:19:26;;;;;;;1.70;1.60;;;;;;;;;;5111550;28;20145;-51
2022/04/02 00:21:52;;;;;;;1.90;1.70;;;;;;;;;;5113374;28;20062;-50
2022/04/02 00:24:18;;;;;;;2.03;1.83;;;;;;;;;;5115433;28;20027;-49
2022/04/02 00:26:44;;;;;;;1.77;1.50;;;;;;;;;;5115422;28;20027;-56
2022/04/02 00:29:11;;;;;;;2.05;1.80;;;;;;;;;;5115299;28;20028;-51
2022/04/02 00:31:37;;;;;;;2.35;1.30;;;;;;;;;;5115253;28;20049;-50
2022/04/02 00:34:03;;;;;;;1.70;1.60;;;;;;;;;;5114472;28;20024;-51
2022/04/02 00:36:31;;;;;;;3.58;1.40;;;;;;;;;;5115457;28;20098;-53
2022/04/02 00:38:57;;;;;;;1.60;1.50;;;;;;;;;;5114739;28;20056;-50
2022/04/02 00:41:23;;;;;;;1.83;1.50;;;;;;;;;;5115003;28;20020;-50
2022/04/02 00:44:00;;;;;;;2.10;1.90;;;;;;;;;;5114715;28;20110;-50
2022/04/02 00:46:26;;;;;;;1.63;1.45;;;;;;;;;;5115177;28;20465;-51
2022/04/02 00:48:52;;;;;;;2.63;1.50;;;;;;;;;;5114038;28;20036;-51
2022/04/02 00:51:19;;;;;;;2.20;1.70;;;;;;;;;;5115258;28;20020;-53
2022/04/02 00:53:47;;;;;;;1.63;1.50;;;;;;;;;;5114886;28;20482;-56
2022/04/02 00:56:13;;;;;;;1.67;1.48;;;;;;;;;;5114865;28;20023;-50
2022/04/02 00:58:39;;;;;;;1.85;1.63;;;;;;;;;;5114575;28;20027;-51
2022/04/02 01:01:06;;;;;;;1.60;1.42;;;;;;;;;;5114922;28;20020;-51
2022/04/02 01:03:32;;;;;;;2.13;1.92;;;;;;;;;;5115576;28;20051;-50
2022/04/02 01:05:58;;;;;;;1.90;1.70;;;;;;;;;;5114351;28;20031;-52
2022/04/02 01:08:25;;;;;;;1.75;1.42;;;;;;;;;;5114904;28;20035;-51
2022/04/02 01:10:51;;;;;;;1.70;1.60;;;;;;;;;;5113435;28;20035;-53
2022/04/02 01:13:16;;;;;;;1.73;1.42;;;;;;;;;;5114806;28;20016;-51
2022/04/02 01:15:42;;;;;;;1.85;1.65;;;;;;;;;;5115289;28;20045;-51
2022/04/02 01:18:08;;;;;;;1.60;1.33;;;;;;;;;;5113846;28;20110;-51
2022/04/02 01:20:35;;;;;;;3.58;1.90;;;;;;;;;;5114440;28;20524;-54
2022/04/02 01:23:01;;;;;;;2.08;1.80;;;;;;;;;;5113770;28;20035;-54
2022/04/02 01:25:34;;;;;;;2.00;1.58;;;;;;;;;;5096490;28;20059;-50
2022/04/02 01:28:00;;;;;;;1.65;1.50;;;;;;;;;;5112841;28;20480;-52
2022/04/02 01:30:27;;;;;;;2.13;1.67;;;;;;;;;;5114686;28;20070;-53
2022/04/02 01:32:53;;;;;;;2.00;1.50;;;;;;;;;;5113320;28;20033;-52
2022/04/02 01:35:22;;;;;;;2.03;1.50;;;;;;;;;;5114287;28;20027;-51
2022/04/02 01:37:49;;;;;;;1.65;1.45;;;;;;;;;;5113450;28;20056;-54
2022/04/02 01:40:15;;;;;;;3.67;1.67;;;;;;;;;;5096216;28;20019;-50
2022/04/02 01:42:41;;;;;;;1.77;1.60;;;;;;;;;;5113951;28;20063;-50
2022/04/02 01:45:08;;;;;;;1.95;1.77;;;;;;;;;;5113307;28;20019;-54
2022/04/02 01:47:34;;;;;;;1.80;1.70;;;;;;;;;;5114029;28;20028;-51
2022/04/02 01:50:00;;;;;;;1.75;1.35;;;;;;;;;;5113561;28;20034;-51
2022/04/02 01:52:26;;;;;;;1.80;1.30;;;;;;;;;;5113771;28;20020;-53
2022/04/02 01:54:52;;;;;;;1.55;1.45;;;;;;;;;;5112544;28;20072;-50
2022/04/02 01:57:19;;;;;;;2.50;1.50;;;;;;;;;;5114071;28;20024;-51
2022/04/02 01:59:47;;;;;;;1.45;1.20;;;;;;;;;;5114184;28;20024;-54
2022/04/02 02:02:14;;;;;;;1.40;1.30;;;;;;;;;;5113663;28;20027;-52
2022/04/02 02:04:40;;;;;;;1.88;1.52;;;;;;;;;;5114132;28;20016;-50
2022/04/02 02:07:06;;;;;;;2.17;1.80;;;;;;;;;;5113159;28;20523;-51
2022/04/02 02:09:33;;;;;;;1.70;1.60;;;;;;;;;;5113553;28;20028;-50
2022/04/02 02:11:59;;;;;;;1.63;1.50;;;;;;;;;;5112958;28;20084;-54
2022/04/02 02:14:26;;;;;;;1.83;1.42;;;;;;;;;;5113666;28;20023;-50
2022/04/02 02:16:52;;;;;;;2.53;1.75;;;;;;;;;;5112510;28;20418;-51
2022/04/02 02:19:18;;;;;;;2.90;1.48;;;;;;;;;;5113587;28;20027;-49
2022/04/02 02:21:44;;;;;;;1.77;1.40;;;;;;;;;;5113548;28;20054;-50
2022/04/02 02:24:10;;;;;;;1.77;1.30;;;;;;;;;;5112462;28;20059;-50
2022/04/02 02:26:36;;;;;;;1.55;1.35;;;;;;;;;;5113104;28;20055;-50
2022/04/02 02:29:06;;;;;;;2.17;1.33;;;;;;;;;;5112153;28;20031;-52
2022/04/02 02:31:33;;;;;;;1.52;1.40;;;;;;;;;;5099096;28;20072;-50
2022/04/02 02:36:43;;;;;;;1.73;1.50;;;;;;;;;;5113408;28;20416;-51
2022/04/02 02:39:09;;;;;;;1.73;1.40;;;;;;;;;;5111995;28;20043;-51
2022/04/02 02:41:35;;;;;;;1.50;1.40;;;;;;;;;;5098146;28;20390;-51
2022/04/02 02:44:02;;;;;;;2.78;1.30;;;;;;;;;;5091721;28;20032;-49
2022/04/02 02:46:28;;;;;;;2.92;1.70;;;;;;;;;;5092764;28;20024;-49
2022/04/02 02:48:54;;;;;;;1.70;1.40;;;;;;;;;;5092012;28;20024;-54
2022/04/02 02:51:20;;;;;;;2.33;1.60;;;;;;;;;;5092943;28;20381;-51
2022/04/02 02:53:46;;;;;;;1.73;1.20;;;;;;;;;;5074463;28;20028;-54
2022/04/02 02:56:12;;;;;;;1.88;1.30;;;;;;;;;;5091649;28;20086;-50
2022/04/02 02:58:38;;;;;;;1.55;1.30;;;;;;;;;;5096537;28;20040;-53
2022/04/02 03:01:05;;;;;;;1.73;1.38;;;;;;;;;;5074913;28;20032;-50
2022/04/02 03:03:31;;;;;;;2.40;1.35;;;;;;;;;;5112984;28;20031;-49
2022/04/02 03:05:57;;;;;;;1.67;1.30;;;;;;;;;;5109866;28;20024;-55
2022/04/02 03:08:23;;;;;;;2.78;1.55;;;;;;;;;;5092117;28;20090;-50
2022/04/02 03:10:49;;;;;;;1.40;1.20;;;;;;;;;;5092023;28;20035;-55
2022/04/02 03:13:16;;;;;;;1.88;1.50;;;;;;;;;;5112129;28;20020;-49
2022/04/02 03:15:42;;;;;;;3.35;1.40;;;;;;;;;;5112782;28;20024;-51
2022/04/02 03:18:09;;;;;;;1.95;1.52;;;;;;;;;;5111483;28;20047;-49
2022/04/02 03:20:35;;;;;;;2.15;0.98;;;;;;;;;;5112750;28;20024;-51
2022/04/02 03:23:02;;;;;;;1.38;1.15;;;;;;;;;;5095147;28;20039;-49
2022/04/02 03:25:28;;;;;;;2.75;1.45;;;;;;;;;;5092656;28;20036;-49
2022/04/02 03:27:54;;;;;;;2.17;1.40;;;;;;;;;;5091056;28;20496;-51
2022/04/02 03:30:21;;;;;;;2.35;1.70;;;;;;;;;;5093101;28;20395;-49
2022/04/02 03:32:47;;;;;;;2.17;1.50;;;;;;;;;;5092450;28;20025;-50
2022/04/02 03:35:14;;;;;;;2.03;1.10;;;;;;;;;;5108825;28;20023;-50
2022/04/02 03:37:41;;;;;;;2.10;1.30;;;;;;;;;;5112219;28;20044;-49
2022/04/02 03:40:08;;;;;;;1.60;1.50;;;;;;;;;;5097014;28;20393;-50
2022/04/02 03:42:38;;;;;;;1.70;1.17;;;;;;;;;;5092047;28;20420;-49
2022/04/02 03:45:05;;;;;;;2.20;1.20;;;;;;;;;;5091161;28;20020;-50
2022/04/02 03:47:31;;;;;;;3.00;2.05;;;;;;;;;;5084825;28;20028;-50
2022/04/02 03:49:57;;;;;;;2.20;1.55;;;;;;;;;;5111157;28;20464;-51
2022/04/02 03:52:23;;;;;;;1.63;1.15;;;;;;;;;;5104596;28;20357;-50
2022/04/02 03:54:49;;;;;;;2.47;1.50;;;;;;;;;;5092842;28;20027;-55
2022/04/02 03:57:15;;;;;;;2.50;1.60;;;;;;;;;;5096819;28;20016;-51
2022/04/02 03:59:42;;;;;;;1.25;1.15;;;;;;;;;;5077878;28;20039;-53
2022/04/02 04:02:08;;;;;;;2.08;1.50;;;;;;;;;;5099413;28;20039;-53
2022/04/02 04:04:35;;;;;;;2.03;1.55;;;;;;;;;;5095996;28;20330;-49
2022/04/02 04:07:02;;;;;;;2.20;1.45;;;;;;;;;;5094953;28;20157;-50
2022/04/02 04:09:28;;;;;;;1.70;1.30;;;;;;;;;;5098264;28;20031;-49
2022/04/02 04:11:54;;;;;;;1.88;1.40;;;;;;;;;;5107291;28;20044;-53
2022/04/02 04:14:20;;;;;;;1.35;1.20;;;;;;;;;;5095390;28;20035;-51
2022/04/02 04:16:47;;;;;;;1.80;1.55;;;;;;;;;;5095652;28;20135;-52
2022/04/02 04:19:16;;;;;;;1.90;1.33;;;;;;;;;;5094729;28;20109;-51
2022/04/02 04:21:43;;;;;;;2.70;1.48;;;;;;;;;;5075292;28;20025;-50
2022/04/02 04:24:09;;;;;;;2.72;1.40;;;;;;;;;;5074608;28;20027;-53
2022/04/02 04:26:35;;;;;;;2.50;1.13;;;;;;;;;;5075194;28;20017;-49
2022/04/02 04:29:01;;;;;;;1.80;1.23;;;;;;;;;;5089232;28;20023;-54
2022/04/02 04:31:28;;;;;;;1.65;1.23;;;;;;;;;;5113694;28;20040;-50
2022/04/02 04:33:54;;;;;;;2.33;1.65;;;;;;;;;;5115218;28;20046;-56
2022/04/02 04:36:20;;;;;;;2.28;1.50;;;;;;;;;;5115666;28;20026;-52
2022/04/02 04:38:47;;;;;;;2.92;0.95;;;;;;;;;;5115648;28;20083;-51
2022/04/02 04:41:13;;;;;;;2.00;1.25;;;;;;;;;;5098034;28;20603;-54
2022/04/02 04:43:41;;;;;;;2.28;1.52;;;;;;;;;;5094949;28;20020;-53
2022/04/02 04:46:07;;;;;;;1.30;1.20;;;;;;;;;;5097537;28;20023;-50
2022/04/02 04:48:35;;;;;;;1.60;1.00;;;;;;;;;;5115568;28;20059;-51
2022/04/02 04:51:01;;;;;;;2.10;1.20;;;;;;;;;;5092438;28;20024;-52
2022/04/02 04:53:27;;;;;;;2.47;1.17;;;;;;;;;;5095258;28;20043;-53
2022/04/02 04:55:54;;;;;;;1.75;1.20;;;;;;;;;;5094443;28;20020;-56
2022/04/02 04:58:20;;;;;;;1.40;1.25;;;;;;;;;;5094181;28;20093;-54
2022/04/02 05:00:46;;;;;;;5.63;1.38;;;;;;;;;;5093200;28;20024;-49
2022/04/02 05:03:12;;;;;;;2.88;1.20;;;;;;;;;;5092951;28;20580;-53
2022/04/02 05:05:38;;;;;;;2.10;1.40;;;;;;;;;;5094526;28;20028;-51
2022/04/02 05:08:05;;;;;;;1.58;1.27;;;;;;;;;;5093129;28;20452;-51
2022/04/02 05:10:31;;;;;;;2.30;1.50;;;;;;;;;;5103971;28;20408;-53
2022/04/02 05:12:57;;;;;;;1.30;1.20;;;;;;;;;;5114300;28;20027;-50
2022/04/02 05:15:23;;;;;;;2.60;1.58;;;;;;;;;;5100205;28;20023;-51
2022/04/02 05:17:49;;;;;;;2.40;1.42;;;;;;;;;;5094184;28;20028;-50
2022/04/02 05:20:15;;;;;;;2.00;1.20;;;;;;;;;;5094261;28;20027;-51
2022/04/02 05:22:42;;;;;;;1.60;1.50;;;;;;;;;;5094439;28;20035;-50
2022/04/02 05:25:08;;;;;;;2.10;1.05;;;;;;;;;;5093700;28;20028;-52
2022/04/02 05:27:34;;;;;;;1.50;1.30;;;;;;;;;;5094422;28;20050;-50
2022/04/02 05:30:00;;;;;;;1.85;1.55;;;;;;;;;;5104826;28;20037;-50
2022/04/02 05:32:28;;;;;;;3.28;1.50;;;;;;;;;;5093646;28;20050;-52
2022/04/02 05:34:54;;;;;;;3.50;1.38;;;;;;;;;;5093933;28;20028;-54
2022/04/02 05:37:20;;;;;;;2.67;1.23;;;;;;;;;;5108054;28;20051;-49
2022/04/02 05:39:46;;;;;;;1.77;1.02;;;;;;;;;;5109230;28;20055;-49
2022/04/02 05:42:12;;;;;;;1.35;1.13;;;;;;;;;;5105055;28;20404;-52
2022/04/02 05:44:39;;;;;;;2.63;1.55;;;;;;;;;;5109538;28;20016;-49
2022/04/02 05:47:05;;;;;;;2.60;1.55;;;;;;;;;;5093988;28;20461;-48
2022/04/02 05:49:31;;;;;;;1.70;1.30;;;;;;;;;;5111229;28;20392;-50
2022/04/02 05:51:58;;;;;;;1.77;1.40;;;;;;;;;;5101068;28;20150;-55
2022/04/02 05:54:24;;;;;;;2.90;1.48;;;;;;;;;;5111286;28;20381;-50
2022/04/02 05:56:50;;;;;;;1.73;1.08;;;;;;;;;;5093725;28;20024;-53
2022/04/02 05:59:16;;;;;;;1.58;1.17;;;;;;;;;;5092980;28;20590;-51
2022/04/02 06:01:42;;;;;;;1.92;1.48;;;;;;;;;;5093265;28;20388;-50
2022/04/02 06:04:09;;;;;;;3.15;1.30;;;;;;;;;;5092942;28;20020;-49
2022/04/02 06:06:36;;;;;;;1.48;1.17;;;;;;;;;;5092218;28;20034;-52
2022/04/02 06:09:03;;;;;;;2.55;1.25;;;;;;;;;;5092413;28;20035;-48
2022/04/02 06:11:29;;;;;;;3.60;0.90;;;;;;;;;;5092511;28;20082;-50
2022/04/02 06:13:56;;;;;;;2.42;1.20;;;;;;;;;;5092191;28;20035;-54
2022/04/02 06:16:23;;;;;;;1.95;1.20;;;;;;;;;;5091726;28;20028;-49
2022/04/02 06:18:49;;;;;;;1.60;1.02;;;;;;;;;;5091591;28;20118;-53
2022/04/02 06:21:15;;;;;;;1.58;1.20;;;;;;;;;;5091298;28;20020;-50
2022/04/02 06:23:42;;;;;;;1.88;1.30;;;;;;;;;;5073930;28;20073;-51
2022/04/02 06:26:08;;;;;;;1.33;0.90;;;;;;;;;;5090594;28;20067;-53
2022/04/02 06:28:36;;;;;;;1.65;0.90;;;;;;;;;;5092313;28;20028;-53
2022/04/02 06:31:02;;;;;;;1.50;1.00;;;;;;;;;;5092089;28;20016;-54
2022/04/02 06:33:28;;;;;;;1.02;0.93;;;;;;;;;;5091539;28;20073;-52
2022/04/02 06:35:54;;;;;;;2.78;1.40;;;;;;;;;;5091857;28;20020;-53
2022/04/02 06:38:20;;;;;;;1.10;0.93;;;;;;;;;;5102724;28;20433;-53
2022/04/02 06:40:46;;;;;;;1.65;1.08;;;;;;;;;;5112020;28;20027;-53
2022/04/02 06:43:13;;;;;;;3.50;1.73;;;;;;;;;;5111050;28;20071;-53
2022/04/02 06:45:39;;;;;;;3.92;1.13;;;;;;;;;;5111587;28;20164;-52
2022/04/02 06:48:05;;;;;;;1.45;1.35;;;;;;;;;;5110600;28;20508;-52
2022/04/02 06:50:31;;;;;;;2.30;1.00;;;;;;;;;;5111936;28;20027;-53
2022/04/02 06:52:57;;;;;;;1.52;0.80;;;;;;;;;;5110784;28;20814;-54
2022/04/02 06:55:23;;;;;;;2.60;1.10;;;;;;;;;;5112098;28;20031;-52
2022/04/02 06:57:52;;;;;;;1.33;0.93;;;;;;;;;;5111572;28;20106;-52
2022/04/02 07:00:18;;;;;;;1.10;1.00;;;;;;;;;;5110826;28;20254;-52
2022/04/02 07:02:45;;;;;;;1.13;0.95;;;;;;;;;;5111400;28;20472;-54
2022/04/02 07:05:11;;;;;;;1.27;0.82;;;;;;;;;;5110678;28;20032;-51
2022/04/02 07:07:37;;;;;;;1.30;1.20;;;;;;;;;;5111609;28;20472;-50
2022/04/02 07:10:04;;;;;;;1.33;1.00;;;;;;;;;;5111819;28;20032;-52
2022/04/02 07:12:31;;;;;;;3.60;1.70;;;;;;;;;;5112256;28;20350;-51
2022/04/02 07:14:57;;;;;;;1.73;1.30;;;;;;;;;;5111108;28;20094;-55
2022/04/02 07:17:23;;;;;;;3.28;1.80;;;;;;;;;;5093896;28;20031;-51
2022/04/02 07:19:50;;;;;;;1.98;1.30;;;;;;;;;;5111602;28;20035;-53
2022/04/02 07:22:20;;;;;;;4.63;2.00;;;;;;;;;;5112198;28;20030;-50
2022/04/02 07:24:46;;;;;;;2.33;1.40;;;;;;;;;;5112793;28;20020;-51
2022/04/02 07:27:12;;;;;;;3.03;1.45;;;;;;;;;;5095780;28;20023;-53
2022/04/02 07:29:40;;;;;;;1.65;1.17;;;;;;;;;;5112358;28;20067;-51
2022/04/02 07:32:08;;;;;;;1.05;0.90;;;;;;;;;;5111309;28;20491;-49
2022/04/02 07:34:34;;;;;;;1.77;1.30;;;;;;;;;;5112339;28;20019;-52
2022/04/02 07:37:09;;;;;;;3.10;0.90;;;;;;;;;;5110576;28;20023;-51
2022/04/02 07:39:39;;;;;;;1.90;1.10;;;;;;;;;;5086094;28;20035;-46
2022/04/02 07:42:11;;;;;;;1.48;1.08;;;;;;;;;;5089697;28;20395;-50
2022/04/02 07:44:46;;;;;;;10.45;1.48;;;;;;;;;;5091115;28;20039;-51
2022/04/02 07:47:15;;;;;;;2.75;1.00;;;;;;;;;;5090778;28;20012;-47
2022/04/02 07:49:44;;;;;;;2.75;0.88;;;;;;;;;;5091100;28;20038;-48
2022/04/02 07:52:14;;;;;;;7.30;1.13;;;;;;;;;;5090339;28;20032;-46
2022/04/02 07:54:42;;;;;;;3.35;1.05;;;;;;;;;;5091669;28;20400;-58
2022/04/02 07:57:09;;;;;;;6.07;1.20;;;;;;;;;;5080567;28;20023;-61
2022/04/02 07:59:44;;;;;;;3.40;1.40;;;;;;;;;;5081463;28;20020;-60
2022/04/02 08:05:00;;;;;;;2.30;1.30;;;;;;;;;;5086906;28;20074;-58
2022/04/02 08:07:30;;;;;;;3.55;1.67;;;;;;;;;;5086275;28;20136;-59
2022/04/02 08:09:56;;;;;;;2.97;0.93;;;;;;;;;;5089465;28;20039;-59
2022/04/02 08:12:23;;;;;;;6.05;1.25;;;;;;;;;;5089555;28;20522;-58
2022/04/02 08:14:51;;;;;;;1.33;0.80;;;;;;;;;;5089835;28;20077;-58
2022/04/02 08:17:17;;;;;;;3.08;1.10;;;;;;;;;;5087789;28;20013;-57
2022/04/02 08:19:44;;;;;;;3.25;1.15;;;;;;;;;;5089640;28;20044;-59
2022/04/02 08:22:10;;;;;;;4.63;1.25;;;;;;;;;;5088175;28;20062;-58
2022/04/02 08:24:36;;;;;;;12.35;1.27;;;;;;;;;;5089938;28;20039;-59
2022/04/02 08:27:04;;;;;;;3.33;1.45;;;;;;;;;;5085872;28;20425;-60
2022/04/02 08:29:48;;;;;;;4.88;1.08;;;;;;;;;;5088036;28;20089;-62
2022/04/02 08:32:29;;;;;;;6.10;1.10;;;;;;;;;;5091008;28;20038;-64
2022/04/02 08:35:09;;;;;;;4.50;1.33;;;;;;;;;;5091134;28;20101;-59
2022/04/02 08:37:44;;;;;;;1.77;1.00;;;;;;;;;;5090792;28;20044;-59
2022/04/02 08:40:19;;;;;;;2.25;0.90;;;;;;;;;;5071725;28;20108;-61
2022/04/02 08:43:04;;;;;;;2.05;0.98;;;;;;;;;;5073848;28;20431;-59
2022/04/02 08:45:32;;;;;;;1.10;0.90;;;;;;;;;;5074516;28;20385;-62
2022/04/02 08:48:27;;;;;;;5.07;1.52;;;;;;;;;;5074910;28;20028;-60
2022/04/02 08:51:06;;;;;;;4.43;1.13;;;;;;;;;;5066022;28;20393;-59
2022/04/02 08:53:50;;;;;;;2.92;1.17;;;;;;;;;;5084920;28;20025;-62
2022/04/02 08:56:25;;;;;;;2.28;1.27;;;;;;;;;;5077726;28;20025;-62
2022/04/02 08:59:04;;;;;;;4.47;1.10;;;;;;;;;;5072970;28;20033;-61
2022/04/02 09:01:52;;;;;;;3.75;1.30;;;;;;;;;;5079698;28;20028;-62
2022/04/02 09:04:26;;;;;;;2.80;0.90;;;;;;;;;;5094400;28;20024;-61
2022/04/02 09:07:11;;;;;;;3.95;1.05;;;;;;;;;;5081654;28;20032;-60
2022/04/02 09:09:40;;;;;;;1.85;1.50;;;;;;;;;;5073482;28;20090;-61
2022/04/02 09:12:25;;;;;;;2.72;1.17;;;;;;;;;;5085668;28;20028;-61
2022/04/02 09:14:54;;;;;;;5.45;1.60;;;;;;;;;;5076778;28;20043;-61
2022/04/02 09:17:30;;;;;;;3.90;1.17;;;;;;;;;;5072373;28;20118;-60
2022/04/02 09:19:55;;;;;;;6.50;1.17;;;;;;;;;;5073837;28;20034;-61
2022/04/02 09:22:21;;;;;;;1.80;1.08;;;;;;;;;;5072847;28;20059;-63
2022/04/02 09:25:06;;;;;;;6.05;1.15;;;;;;;;;;5073762;28;20027;-62
2022/04/02 09:27:35;;;;;;;2.15;0.93;;;;;;;;;;5073576;28;20370;-66
2022/04/02 09:30:12;;;;;;;7.28;1.10;;;;;;;;;;5082788;28;20492;-62
2022/04/02 09:32:50;;;;;;;4.70;1.00;;;;;;;;;;5074657;28;20107;-65
2022/04/02 09:35:30;;;;;;;1.63;0.80;;;;;;;;;;5071988;28;20115;-67
2022/04/02 09:37:56;;;;;;;14.45;1.55;;;;;;;;;;5081413;28;20048;-62
2022/04/02 09:40:31;;;;;;;5.18;0.90;;;;;;;;;;5092758;28;20105;-61
2022/04/02 09:43:00;;;;;;;4.47;1.25;;;;;;;;;;5083359;28;20420;-65
2022/04/02 09:45:32;;;;;;;3.55;0.70;;;;;;;;;;5092844;28;20035;-62
2022/04/02 09:48:31;;;;;;;6.40;1.15;;;;;;;;;;5093779;28;20028;-61
2022/04/02 09:50:57;;;;;;;2.35;1.00;;;;;;;;;;5048517;28;20036;-60
2022/04/02 09:53:29;;;;;;;3.58;0.90;;;;;;;;;;5092839;28;20051;-63
2022/04/02 09:56:14;;;;;;;5.25;1.17;;;;;;;;;;5093783;28;20020;-63
2022/04/02 09:58:40;;;;;;;3.97;0.88;;;;;;;;;;5093254;28;20032;-65
2022/04/02 10:01:08;;;;;;;1.83;1.08;;;;;;;;;;5092938;28;20028;-61
2022/04/02 10:03:48;;;;;;;7.00;1.55;;;;;;;;;;5093547;28;20372;-62
2022/04/02 10:06:14;;;;;;;1.73;0.93;;;;;;;;;;5092995;28;20024;-63
2022/04/02 10:08:48;;;;;;;6.13;1.40;;;;;;;;;;5092788;28;20492;-63
2022/04/02 10:11:19;;;;;;;1.75;0.85;;;;;;;;;;5092437;28;20047;-63
2022/04/02 10:13:45;;;;;;;7.28;1.63;;;;;;;;;;5093998;28;20395;-64
2022/04/02 10:16:14;;;;;;;3.33;1.33;;;;;;;;;;5091419;28;20016;-62
2022/04/02 10:18:42;;;;;;;2.60;0.98;;;;;;;;;;5093699;28;20043;-63
2022/04/02 10:21:09;;;;;;;2.72;1.23;;;;;;;;;;5091638;28;20032;-61
2022/04/02 10:23:37;;;;;;;4.60;1.10;;;;;;;;;;5093252;28;20029;-63
2022/04/02 10:26:07;;;;;;;3.10;1.20;;;;;;;;;;5092684;28;20031;-63
2022/04/02 10:28:40;;;;;;;3.33;1.05;;;;;;;;;;5093002;28;20024;-63
2022/04/02 10:31:06;;;;;;;2.95;1.20;;;;;;;;;;5092422;28;20059;-61
2022/04/02 10:33:36;;;;;;;1.83;1.05;;;;;;;;;;5092511;28;20038;-62
2022/04/02 10:36:03;;;;;;;2.88;0.90;;;;;;;;;;5092640;28;20099;-64
2022/04/02 10:38:37;;;;;;;1.58;1.02;;;;;;;;;;5091400;28;20054;-65
2022/04/02 10:41:13;;;;;;;6.28;1.80;;;;;;;;;;5092388;28;20074;-61
2022/04/02 10:43:58;;;;;;;1.27;0.95;;;;;;;;;;5091355;28;20361;-62
2022/04/02 10:46:25;;;;;;;2.00;1.25;;;;;;;;;;5091276;28;20103;-61
2022/04/02 10:49:00;;;;;;;2.50;0.90;;;;;;;;;;5092992;28;20127;-61
2022/04/02 10:51:30;;;;;;;2.75;1.33;;;;;;;;;;5091734;28;20131;-62
2022/04/02 10:54:01;;;;;;;2.72;1.02;;;;;;;;;;5091934;28;20551;-62
2022/04/02 10:56:47;;;;;;;3.30;1.08;;;;;;;;;;5091570;28;20055;-61
2022/04/02 10:59:14;;;;;;;4.13;1.27;;;;;;;;;;5085612;28;20031;-62
2022/04/02 11:01:42;;;;;;;2.00;1.20;;;;;;;;;;5092213;28;20028;-61
2022/04/02 11:04:20;;;;;;;1.83;1.23;;;;;;;;;;5091922;28;20074;-60
2022/04/02 11:06:47;;;;;;;3.03;0.98;;;;;;;;;;5091707;28;20082;-62
2022/04/02 11:09:22;;;;;;;1.30;0.98;;;;;;;;;;5089809;28;20066;-61
2022/04/02 11:11:48;;;;;;;2.80;1.02;;;;;;;;;;5091079;28;20032;-61
2022/04/02 11:14:23;;;;;;;5.70;1.65;;;;;;;;;;5091053;28;20020;-62
2022/04/02 11:16:49;;;;;;;2.65;1.23;;;;;;;;;;5092261;28;20054;-62
2022/04/02 11:22:11;;;;;;;2.72;1.05;;;;;;;;;;5091863;28;20050;-61
2022/04/02 11:24:46;;;;;;;1.65;1.30;;;;;;;;;;5091789;28;20034;-61
2022/04/02 11:27:18;;;;;;;3.47;1.33;;;;;;;;;;5091468;28;20036;-61
2022/04/02 11:29:47;;;;;;;7.85;1.30;;;;;;;;;;5092318;28;20107;-62
2022/04/02 11:32:14;;;;;;;1.63;1.13;;;;;;;;;;5091143;28;20030;-61
2022/04/02 11:34:42;;;;;;;1.55;1.02;;;;;;;;;;5092115;28;20028;-61
2022/04/02 11:37:10;;;;;;;1.20;1.10;;;;;;;;;;5091556;28;20085;-64
2022/04/02 11:40:08;;;;;;;1.95;1.08;;;;;;;;;;5091530;28;20028;-63
2022/04/02 11:42:36;;;;;;;1.40;0.90;;;;;;;;;;5075219;28;20036;-62
2022/04/02 11:45:07;;;;;;;2.22;1.00;;;;;;;;;;5079755;28;20072;-62
2022/04/02 11:47:35;;;;;;;1.17;0.98;;;;;;;;;;5091101;28;20057;-62
2022/04/02 11:50:06;;;;;;;1.30;1.20;;;;;;;;;;5092090;28;20045;-63
2022/04/02 11:52:51;;;;;;;1.92;1.23;;;;;;;;;;5091042;28;20024;-62
2022/04/02 11:55:17;;;;;;;1.52;1.00;;;;;;;;;;5091014;28;20024;-62
2022/04/02 11:57:56;;;;;;;4.75;1.30;;;;;;;;;;5091246;28;20024;-62
2022/04/02 12:00:25;;;;;;;1.45;1.00;;;;;;;;;;5090460;28;20440;-63
2022/04/02 12:02:51;;;;;;;3.15;2.30;;;;;;;;;;5090864;28;20469;-60
2022/04/02 12:05:17;;;;;;;3.55;1.98;;;;;;;;;;5091109;28;20056;-61
2022/04/02 12:07:52;;;;;;;4.18;2.13;;;;;;;;;;5091842;28;20035;-63
2022/04/02 12:10:23;;;;;;;4.22;1.60;;;;;;;;;;5090524;28;20050;-59
2022/04/02 12:12:50;;;;;;;2.83;1.38;;;;;;;;;;5091284;28;20024;-63
2022/04/02 12:15:17;;;;;;;5.47;1.55;;;;;;;;;;5090463;28;20503;-64
2022/04/02 12:17:48;;;;;;;7.47;1.75;;;;;;;;;;5095646;28;20099;-60
2022/04/02 12:20:35;;;;;;;9.80;1.90;;;;;;;;;;5094768;28;20035;-60
2022/04/02 12:23:13;;;;;;;6.97;1.70;;;;;;;;;;5088023;28;20032;-61
2022/04/02 12:25:40;;;;;;;9.30;1.85;;;;;;;;;;5095709;28;20091;-60
2022/04/02 12:28:17;;;;;;;4.78;1.73;;;;;;;;;;5095609;28;20020;-60
2022/04/02 12:30:48;;;;;;;3.65;1.50;;;;;;;;;;5095090;28;20028;-67
2022/04/02 12:33:22;;;;;;;10.20;2.97;;;;;;;;;;5094784;28;20031;-66
2022/04/02 12:35:58;;;;;;;5.78;1.50;;;;;;;;;;5082681;28;20409;-60
2022/04/02 12:38:34;;;;;;;9.10;1.77;;;;;;;;;;5084928;28;20075;-60
2022/04/02 12:41:01;;;;;;;12.63;1.98;;;;;;;;;;5091945;28;20370;-60
2022/04/02 12:43:28;;;;;;;5.35;1.90;;;;;;;;;;5074377;28;20042;-63
2022/04/02 12:45:55;;;;;;;6.80;2.10;;;;;;;;;;5087011;28;20062;-63
2022/04/02 12:48:24;;;;;;;6.13;2.20;;;;;;;;;;5077222;28;20020;-63
2022/04/02 12:50:52;;;;;;;6.70;1.85;;;;;;;;;;5094019;28;20039;-63
2022/04/02 12:53:27;;;;;;;10.23;1.75;;;;;;;;;;5094109;28;20032;-64
2022/04/02 12:55:53;;;;;;;4.90;2.00;;;;;;;;;;5094799;28;20016;-64
2022/04/02 12:58:29;;;;;;;3.88;1.98;;;;;;;;;;5093769;28;20016;-61
2022/04/02 13:01:06;;;;;;;4.47;1.95;;;;;;;;;;5094787;28;20024;-61
2022/04/02 13:03:36;;;;;;;3.08;1.77;;;;;;;;;;5076027;28;20035;-59
2022/04/02 13:06:03;;;;;;;6.60;1.70;;;;;;;;;;5089700;28;20534;-60
2022/04/02 13:08:30;;;;;;;4.78;1.90;;;;;;;;;;5092897;28;20039;-60
2022/04/02 13:10:56;;;;;;;5.78;1.60;;;;;;;;;;5093847;28;20032;-62
2022/04/02 13:13:37;;;;;;;4.78;2.03;;;;;;;;;;5091597;28;20479;-60
2022/04/02 13:16:03;;;;;;;5.82;2.20;;;;;;;;;;5091950;28;20468;-61
2022/04/02 13:21:17;;;;;;;6.70;1.90;;;;;;;;;;5091662;28;20035;-60
2022/04/02 13:23:46;;;;;;;5.05;1.90;;;;;;;;;;5084041;28;20036;-59
2022/04/02 13:26:13;;;;;;;7.03;1.83;;;;;;;;;;5093399;28;20415;-60
2022/04/02 13:28:51;;;;;;;10.32;2.20;;;;;;;;;;5093406;28;20042;-59
2022/04/02 13:31:23;;;;;;;6.53;1.48;;;;;;;;;;5093514;28;20059;-59
2022/04/02 13:34:08;;;;;;;4.97;1.70;;;;;;;;;;5093194;28;20105;-61
2022/04/02 13:36:40;;;;;;;8.43;2.03;;;;;;;;;;5078386;28;20223;-61
2022/04/02 13:39:10;;;;;;;2.60;1.27;;;;;;;;;;5056313;28;20041;-61
2022/04/02 13:41:37;;;;;;;3.22;2.15;;;;;;;;;;5066022;28;20170;-59
2022/04/02 13:44:05;;;;;;;4.70;2.15;;;;;;;;;;5073473;28;20386;-60
2022/04/02 13:46:54;;;;;;;7.70;2.45;;;;;;;;;;5070022;28;20025;-60
2022/04/02 13:49:28;;;;;;;5.88;1.98;;;;;;;;;;5072195;28;20029;-60
2022/04/02 13:51:56;;;;;;;5.32;1.48;;;;;;;;;;5073107;28;20027;-61
2022/04/02 13:54:28;;;;;;;3.83;1.67;;;;;;;;;;5072164;28;20028;-60
2022/04/02 13:56:58;;;;;;;5.20;2.10;;;;;;;;;;5073721;28;20025;-60
2022/04/02 13:59:36;;;;;;;6.53;1.98;;;;;;;;;;5072674;28;20354;-61
2022/04/02 14:02:04;;;;;;;3.65;1.55;;;;;;;;;;5073313;28;20059;-61
2022/04/02 14:04:32;;;;;;;7.97;1.80;;;;;;;;;;5072163;28;20017;-62
2022/04/02 14:07:03;;;;;;;5.75;1.98;;;;;;;;;;5072449;28;20016;-61
2022/04/02 14:09:30;;;;;;;6.15;1.90;;;;;;;;;;5070326;28;20505;-60
2022/04/02 14:12:00;;;;;;;3.97;2.03;;;;;;;;;;5060917;28;20036;-60
2022/04/02 14:14:31;;;;;;;5.32;1.75;;;;;;;;;;5051025;28;20024;-60
2022/04/02 14:17:03;;;;;;;5.82;1.67;;;;;;;;;;5070684;28;20028;-60
2022/04/02 14:19:42;;;;;;;4.63;1.75;;;;;;;;;;5071624;28;20107;-60
2022/04/02 14:22:09;;;;;;;5.38;2.47;;;;;;;;;;5071965;28;20488;-61
2022/04/02 14:24:49;;;;;;;2.88;1.63;;;;;;;;;;5071597;28;20043;-61
2022/04/02 14:27:34;;;;;;;7.88;2.38;;;;;;;;;;5072748;28;20032;-62
2022/04/02 14:30:15;;;;;;;4.90;1.88;;;;;;;;;;5071928;28;20024;-67
2022/04/02 14:33:00;;;;;;;9.48;2.03;;;;;;;;;;5072012;28;20025;-61
2022/04/02 14:35:44;;;;;;;7.20;1.52;;;;;;;;;;5071489;28;20481;-63
2022/04/02 14:38:22;;;;;;;6.50;2.28;;;;;;;;;;5081743;28;20040;-63
2022/04/02 14:40:48;;;;;;;6.65;1.33;;;;;;;;;;5092163;28;20041;-66
2022/04/02 14:43:25;;;;;;;4.55;1.65;;;;;;;;;;5092581;28;20020;-58
2022/04/02 14:46:03;;;;;;;5.32;2.10;;;;;;;;;;5087195;28;20038;-61
2022/04/02 14:48:35;;;;;;;6.22;2.45;;;;;;;;;;5090808;28;20134;-62
2022/04/02 14:51:19;;;;;;;5.85;2.25;;;;;;;;;;5092470;28;20025;-59
2022/04/02 14:54:04;;;;;;;7.85;2.03;;;;;;;;;;5089192;28;20031;-58
2022/04/02 14:56:59;;;;;;;6.80;1.70;;;;;;;;;;5088638;28;20039;-58
2022/04/02 14:59:28;;;;;;;5.07;1.63;;;;;;;;;;4998371;28;20089;-59
2022/04/02 15:02:13;;;;;;;4.30;2.78;;;;;;;;;;5071264;28;20032;-58
2022/04/02 15:04:48;;;;;;;3.55;1.98;;;;;;;;;;5085348;28;20031;-58
2022/04/02 15:07:20;;;;;;;4.18;1.85;;;;;;;;;;5090914;28;20035;-59
2022/04/02 15:09:47;;;;;;;;;;;;;;;;;;5092453;28;20506;-58